Lagoa Vermelha, Brazil
Current Conditions -  °F | °C
As of 2:00 PM on Saturday 25 Oct 2014 (Local Time) from SBPF Reporting Station
Clear Clear  
Wind Chill: 81°   Ceiling: Unl
Heat Index: 81°   Visibility: 6mi
Dew Point: 61°   Wind: 0mph
Humidity: 51%   Direction: NA
Pressure: 29.97"   Gusts: NA
Location:  28.21°S, 51.53°W
Report Text: SBPF 251600Z 00000KT CAVOK 27/16 Q1015
Loading
Personal Weather Stations






























Interactive Weather Map
Tropical Storm Tracking
New forecast layout! Learn more

10-Day Weather Forecast

Advertisements
Track Severe Weather on mobile